Time;durP1;ratioP1;P1;durP2;ratioP2;P2;SDS_P1;SDS_P2;PMS_P1;PMS_P2;Temp;Humidity;BMP_temperature;BMP_pressure;BME280_temperature;BME280_humidity;BME280_pressure;Samples;Min_cycle;Max_cycle;Signal;HPM_P1;HPM_P2
2022/04/18 00:00:41;;;;;;;12.07;8.48;;;;;;;;;;5039464;28;20394;-80
2022/04/18 00:03:08;;;;;;;11.45;8.10;;;;;;;;;;5039418;28;20052;-80
2022/04/18 00:05:36;;;;;;;12.30;8.27;;;;;;;;;;5041835;28;20059;-81
2022/04/18 00:08:03;;;;;;;11.35;7.82;;;;;;;;;;5036532;28;20057;-81
2022/04/18 00:10:31;;;;;;;13.05;9.05;;;;;;;;;;5043891;28;20137;-80
2022/04/18 00:12:59;;;;;;;14.65;8.70;;;;;;;;;;5041677;28;20053;-80
2022/04/18 00:15:26;;;;;;;13.10;8.70;;;;;;;;;;5043703;28;20045;-81
2022/04/18 00:17:54;;;;;;;13.73;8.73;;;;;;;;;;5044472;28;20708;-80
2022/04/18 00:20:21;;;;;;;14.63;8.20;;;;;;;;;;5047687;28;20385;-80
2022/04/18 00:22:48;;;;;;;13.48;8.63;;;;;;;;;;5039682;28;20049;-81
2022/04/18 00:25:15;;;;;;;13.10;8.90;;;;;;;;;;5040630;28;20052;-80
2022/04/18 00:27:43;;;;;;;17.00;8.70;;;;;;;;;;5043681;28;20083;-80
2022/04/18 00:30:12;;;;;;;14.73;9.70;;;;;;;;;;5042731;28;20412;-80
2022/04/18 00:32:39;;;;;;;12.60;9.13;;;;;;;;;;5040675;28;20049;-81
2022/04/18 00:35:07;;;;;;;13.23;8.75;;;;;;;;;;5036386;28;20053;-80
2022/04/18 00:37:36;;;;;;;13.02;8.40;;;;;;;;;;5042723;28;20187;-80
2022/04/18 00:40:04;;;;;;;14.45;8.30;;;;;;;;;;5047999;28;20052;-80
2022/04/18 00:42:31;;;;;;;14.20;8.93;;;;;;;;;;5040885;28;20049;-80
2022/04/18 00:44:58;;;;;;;16.95;9.18;;;;;;;;;;5045353;28;20095;-80
2022/04/18 00:47:27;;;;;;;13.40;9.13;;;;;;;;;;5042189;28;20056;-80
2022/04/18 00:49:54;;;;;;;15.10;8.68;;;;;;;;;;5033453;28;20061;-80
2022/04/18 00:52:21;;;;;;;14.68;8.85;;;;;;;;;;5040758;28;20561;-80
2022/04/18 00:54:49;;;;;;;14.50;9.48;;;;;;;;;;5045752;28;20130;-80
2022/04/18 00:57:16;;;;;;;16.77;9.13;;;;;;;;;;5039468;28;20604;-80
2022/04/18 00:59:44;;;;;;;14.93;9.07;;;;;;;;;;5048021;28;20064;-80
2022/04/18 01:02:13;;;;;;;14.38;9.15;;;;;;;;;;5047359;28;20140;-80
2022/04/18 01:04:41;;;;;;;13.20;9.35;;;;;;;;;;5042493;28;20149;-80
2022/04/18 01:07:10;;;;;;;14.65;9.00;;;;;;;;;;5037398;28;20055;-80
2022/04/18 01:09:38;;;;;;;18.23;9.45;;;;;;;;;;5044875;28;20049;-80
2022/04/18 01:12:05;;;;;;;15.93;9.10;;;;;;;;;;5034580;28;20050;-80
2022/04/18 01:14:33;;;;;;;13.95;9.25;;;;;;;;;;5041386;28;20385;-80
2022/04/18 01:17:00;;;;;;;14.77;9.38;;;;;;;;;;5041348;28;20526;-81
2022/04/18 01:19:27;;;;;;;12.77;9.38;;;;;;;;;;5040206;28;20642;-80
2022/04/18 01:21:56;;;;;;;15.63;9.25;;;;;;;;;;5042135;28;20064;-81
2022/04/18 01:29:54;;;;;;;14.02;9.27;;;;;;;;;;5044906;28;20467;-80
2022/04/18 01:32:21;;;;;;;14.75;9.45;;;;;;;;;;5044821;28;20136;-81
2022/04/18 01:34:48;;;;;;;13.95;8.98;;;;;;;;;;5034997;28;20066;-82
2022/04/18 01:37:17;;;;;;;21.63;9.77;;;;;;;;;;5044635;28;20057;-80
2022/04/18 01:39:44;;;;;;;15.90;9.90;;;;;;;;;;5038012;28;20068;-81
2022/04/18 01:42:11;;;;;;;14.85;9.95;;;;;;;;;;5039956;28;20056;-80
2022/04/18 01:44:39;;;;;;;17.17;9.70;;;;;;;;;;5044404;28;20052;-80
2022/04/18 01:47:06;;;;;;;14.02;9.80;;;;;;;;;;5048125;28;20085;-80
2022/04/18 01:49:33;;;;;;;13.07;9.27;;;;;;;;;;5044433;28;20100;-80
2022/04/18 01:52:01;;;;;;;15.82;9.95;;;;;;;;;;5047120;28;20053;-81
2022/04/18 01:54:29;;;;;;;16.25;9.38;;;;;;;;;;5045922;28;20061;-80
2022/04/18 01:56:57;;;;;;;19.52;10.25;;;;;;;;;;5042279;28;20048;-81
2022/04/18 01:59:24;;;;;;;15.40;9.90;;;;;;;;;;5041593;28;20048;-81
2022/04/18 02:01:51;;;;;;;14.60;9.10;;;;;;;;;;5038232;28;20053;-80
2022/04/18 02:04:18;;;;;;;17.20;9.07;;;;;;;;;;5035910;28;20037;-80
2022/04/18 02:06:45;;;;;;;16.10;10.38;;;;;;;;;;5046979;28;20110;-81
2022/04/18 02:09:13;;;;;;;15.65;9.57;;;;;;;;;;5039176;28;20049;-80
2022/04/18 02:11:41;;;;;;;16.95;9.15;;;;;;;;;;5037550;28;20094;-81
2022/04/18 02:14:08;;;;;;;16.10;8.93;;;;;;;;;;5042270;28;20391;-80
2022/04/18 02:16:36;;;;;;;16.50;10.13;;;;;;;;;;5033849;28;20075;-81
2022/04/18 02:19:03;;;;;;;16.40;10.23;;;;;;;;;;5035408;28;20068;-81
2022/04/18 02:21:30;;;;;;;15.05;9.77;;;;;;;;;;5042442;28;20049;-81
2022/04/18 02:23:58;;;;;;;15.38;9.15;;;;;;;;;;5045121;28;20045;-81
2022/04/18 02:26:25;;;;;;;17.48;9.38;;;;;;;;;;5038152;28;20052;-81
2022/04/18 02:28:53;;;;;;;16.58;9.52;;;;;;;;;;5046199;28;20425;-80
2022/04/18 02:31:21;;;;;;;17.10;9.27;;;;;;;;;;5042135;28;20053;-80
2022/04/18 02:33:48;;;;;;;14.00;9.23;;;;;;;;;;5043312;28;20056;-80
2022/04/18 02:36:15;;;;;;;15.63;9.05;;;;;;;;;;5046920;28;20063;-80
2022/04/18 02:38:42;;;;;;;19.13;10.40;;;;;;;;;;5044992;28;20139;-81
2022/04/18 02:41:10;;;;;;;18.13;9.40;;;;;;;;;;5041145;28;20053;-81
2022/04/18 02:43:37;;;;;;;17.25;9.85;;;;;;;;;;5036675;28;20052;-80
2022/04/18 02:46:05;;;;;;;13.52;9.88;;;;;;;;;;5042447;28;20376;-81
2022/04/18 02:48:33;;;;;;;14.93;10.13;;;;;;;;;;5040496;28;20049;-80
2022/04/18 02:51:00;;;;;;;17.75;9.82;;;;;;;;;;5041155;28;20079;-80
2022/04/18 02:53:27;;;;;;;14.43;9.05;;;;;;;;;;5044211;28;20057;-81
2022/04/18 02:55:54;;;;;;;16.77;10.18;;;;;;;;;;5036707;28;20072;-80
2022/04/18 02:58:22;;;;;;;15.63;9.95;;;;;;;;;;5041980;28;20411;-80
2022/04/18 03:00:49;;;;;;;14.07;9.82;;;;;;;;;;5036590;28;20607;-80
2022/04/18 03:03:17;;;;;;;14.73;9.95;;;;;;;;;;5039515;28;20886;-80
2022/04/18 03:05:45;;;;;;;16.23;10.55;;;;;;;;;;5044774;28;20056;-80
2022/04/18 03:08:18;;;;;;;13.57;9.15;;;;;;;;;;5043685;28;20137;-81
2022/04/18 03:11:04;;;;;;;16.38;10.13;;;;;;;;;;5046371;28;20084;-81
2022/04/18 03:13:32;;;;;;;16.02;9.82;;;;;;;;;;5041781;28;20052;-81
2022/04/18 03:16:00;;;;;;;16.67;10.63;;;;;;;;;;5040244;28;20061;-81
2022/04/18 03:18:29;;;;;;;18.77;10.75;;;;;;;;;;5043185;28;20048;-81
2022/04/18 03:20:57;;;;;;;18.13;10.43;;;;;;;;;;5042089;28;20534;-81
2022/04/18 03:23:24;;;;;;;14.75;10.02;;;;;;;;;;5043804;28;20072;-80
2022/04/18 03:25:51;;;;;;;15.48;10.77;;;;;;;;;;5038103;28;20056;-80
2022/04/18 03:28:18;;;;;;;16.75;10.55;;;;;;;;;;5039315;28;20053;-80
2022/04/18 03:30:46;;;;;;;16.23;9.95;;;;;;;;;;5039193;28;20056;-80
2022/04/18 03:33:13;;;;;;;14.13;10.45;;;;;;;;;;5042684;28;20049;-81
2022/04/18 03:39:50;;;;;;;14.75;9.70;;;;;;;;;;5039935;28;20045;-81
2022/04/18 03:41:14;;;;;;;15.13;10.85;;;;;;;;;;5038214;28;20489;-80
2022/04/18 03:43:41;;;;;;;17.17;10.43;;;;;;;;;;5038268;28;20059;-80
2022/04/18 03:46:08;;;;;;;15.60;9.52;;;;;;;;;;5043120;28;20045;-81
2022/04/18 03:48:35;;;;;;;16.67;10.68;;;;;;;;;;5045831;28;20687;-80
2022/04/18 03:51:04;;;;;;;16.92;10.23;;;;;;;;;;5036752;28;20053;-80
2022/04/18 03:53:31;;;;;;;19.88;10.30;;;;;;;;;;5038900;28;20136;-80
2022/04/18 03:55:58;;;;;;;17.13;11.00;;;;;;;;;;5046374;28;20429;-80
2022/04/18 03:58:26;;;;;;;16.33;10.02;;;;;;;;;;5054075;28;20712;-81
2022/04/18 04:00:53;;;;;;;18.85;10.27;;;;;;;;;;5042371;28;20057;-81
2022/04/18 04:03:20;;;;;;;17.50;10.20;;;;;;;;;;5045483;28;20488;-80
2022/04/18 04:05:47;;;;;;;16.27;10.50;;;;;;;;;;5039720;28;20118;-80
2022/04/18 04:08:18;;;;;;;16.23;10.77;;;;;;;;;;5042327;28;20045;-81
2022/04/18 04:10:45;;;;;;;17.73;10.40;;;;;;;;;;5038508;28;20087;-81
2022/04/18 04:13:12;;;;;;;19.77;10.07;;;;;;;;;;5041960;28;20130;-80
2022/04/18 04:15:40;;;;;;;16.98;11.48;;;;;;;;;;5043777;28;20053;-81
2022/04/18 04:18:07;;;;;;;16.90;10.77;;;;;;;;;;5039668;28;20087;-80
2022/04/18 04:20:35;;;;;;;16.15;10.82;;;;;;;;;;5045559;28;20106;-80
2022/04/18 04:23:02;;;;;;;17.83;11.13;;;;;;;;;;5039836;28;20338;-80
2022/04/18 04:25:30;;;;;;;15.50;10.32;;;;;;;;;;5043332;28;20804;-80
2022/04/18 04:27:58;;;;;;;16.58;10.88;;;;;;;;;;5041198;28;20053;-80
2022/04/18 04:30:25;;;;;;;17.77;11.00;;;;;;;;;;5039617;28;20532;-80
2022/04/18 04:32:52;;;;;;;15.73;10.60;;;;;;;;;;5038317;28;20092;-80
2022/04/18 04:35:19;;;;;;;17.55;11.18;;;;;;;;;;5037211;28;20049;-81
2022/04/18 04:37:46;;;;;;;17.45;10.57;;;;;;;;;;5038591;28;20163;-80
2022/04/18 04:40:14;;;;;;;19.33;11.43;;;;;;;;;;5039932;28;20053;-80
2022/04/18 04:42:42;;;;;;;17.02;11.00;;;;;;;;;;5040662;28;20077;-80
2022/04/18 04:45:10;;;;;;;16.83;11.43;;;;;;;;;;5039719;28;20048;-80
2022/04/18 04:47:37;;;;;;;16.20;11.07;;;;;;;;;;5039839;28;20064;-81
2022/04/18 04:50:05;;;;;;;18.15;11.57;;;;;;;;;;5040514;28;20377;-80
2022/04/18 04:52:32;;;;;;;18.42;11.40;;;;;;;;;;5040770;28;20053;-81
2022/04/18 04:54:59;;;;;;;19.05;10.65;;;;;;;;;;5037470;28;20823;-80
2022/04/18 04:57:26;;;;;;;17.80;11.43;;;;;;;;;;5038499;28;20056;-80
2022/04/18 04:59:55;;;;;;;18.95;11.27;;;;;;;;;;5026377;28;20635;-80
2022/04/18 05:02:24;;;;;;;19.95;11.63;;;;;;;;;;5039462;28;20048;-80
2022/04/18 05:04:51;;;;;;;22.75;11.77;;;;;;;;;;5037768;28;20049;-80
2022/04/18 05:07:18;;;;;;;19.25;11.68;;;;;;;;;;5037174;28;20068;-80
2022/04/18 05:09:46;;;;;;;22.98;11.68;;;;;;;;;;5041573;28;20068;-80
2022/04/18 05:12:13;;;;;;;21.77;11.77;;;;;;;;;;5039309;28;20044;-80
2022/04/18 05:14:40;;;;;;;17.75;11.20;;;;;;;;;;5040780;28;20052;-80
2022/04/18 05:17:09;;;;;;;16.33;10.55;;;;;;;;;;5041210;28;20098;-80
2022/04/18 05:19:36;;;;;;;18.35;11.30;;;;;;;;;;5042882;28;20051;-80
2022/04/18 05:22:03;;;;;;;19.17;10.95;;;;;;;;;;5038901;28;20532;-80
2022/04/18 05:24:30;;;;;;;18.27;11.63;;;;;;;;;;5036125;28;20397;-80
2022/04/18 05:26:58;;;;;;;20.23;11.38;;;;;;;;;;5039315;28;20314;-80
2022/04/18 05:29:25;;;;;;;19.35;11.90;;;;;;;;;;5038132;28;20053;-80
2022/04/18 05:31:52;;;;;;;19.13;11.57;;;;;;;;;;5042303;28;20041;-80
2022/04/18 05:34:21;;;;;;;17.60;11.38;;;;;;;;;;5039192;28;20536;-80
2022/04/18 05:36:48;;;;;;;20.30;12.07;;;;;;;;;;5039328;28;20052;-80
2022/04/18 05:39:16;;;;;;;18.30;11.65;;;;;;;;;;5038105;28;20474;-80
2022/04/18 05:41:43;;;;;;;18.38;11.15;;;;;;;;;;5039964;28;20053;-80
2022/04/18 05:44:10;;;;;;;19.27;11.35;;;;;;;;;;5039597;28;20130;-80
2022/04/18 05:46:37;;;;;;;19.40;12.07;;;;;;;;;;5038724;28;20069;-80
2022/04/18 05:49:04;;;;;;;23.40;12.25;;;;;;;;;;5037808;28;20534;-80
2022/04/18 05:51:33;;;;;;;18.23;11.20;;;;;;;;;;5043206;28;20053;-80
2022/04/18 05:54:03;;;;;;;18.33;11.75;;;;;;;;;;5040483;28;20053;-80
2022/04/18 05:56:30;;;;;;;20.23;11.45;;;;;;;;;;5039978;28;20065;-80
2022/04/18 05:58:57;;;;;;;18.88;11.80;;;;;;;;;;5040308;28;20041;-80
2022/04/18 06:01:24;;;;;;;22.60;11.90;;;;;;;;;;5037490;28;20049;-80
2022/04/18 06:03:52;;;;;;;19.08;11.02;;;;;;;;;;5035452;28;20057;-80
2022/04/18 06:06:19;;;;;;;20.10;11.30;;;;;;;;;;5039385;28;20053;-80
2022/04/18 06:08:48;;;;;;;18.25;11.43;;;;;;;;;;5038208;28;20168;-80
2022/04/18 06:11:15;;;;;;;18.85;11.88;;;;;;;;;;5037295;28;20057;-80
2022/04/18 06:13:42;;;;;;;18.48;11.20;;;;;;;;;;5035718;28;20102;-80
2022/04/18 06:16:10;;;;;;;19.63;11.13;;;;;;;;;;5039754;28;20160;-80
2022/04/18 06:18:37;;;;;;;18.23;11.23;;;;;;;;;;5037208;28;20061;-80
2022/04/18 06:21:06;;;;;;;18.33;11.15;;;;;;;;;;5037068;28;20064;-80
2022/04/18 06:23:33;;;;;;;18.33;10.30;;;;;;;;;;5036802;28;20206;-80
2022/04/18 06:26:02;;;;;;;18.60;10.77;;;;;;;;;;5037919;28;20045;-80
2022/04/18 06:28:29;;;;;;;19.65;11.25;;;;;;;;;;5039378;28;20052;-80
2022/04/18 06:30:56;;;;;;;20.27;10.38;;;;;;;;;;5033045;28;20060;-80
2022/04/18 06:33:23;;;;;;;17.40;10.90;;;;;;;;;;5037116;28;20072;-80
2022/04/18 06:35:51;;;;;;;16.05;10.48;;;;;;;;;;5039438;28;20048;-81
2022/04/18 06:38:18;;;;;;;19.80;10.07;;;;;;;;;;5038591;28;20483;-80
2022/04/18 06:40:46;;;;;;;19.02;9.93;;;;;;;;;;5036439;28;20059;-80
2022/04/18 06:43:17;;;;;;;15.32;10.23;;;;;;;;;;5035246;28;20471;-80
2022/04/18 06:45:44;;;;;;;16.25;9.88;;;;;;;;;;5037363;28;20053;-80
2022/04/18 06:48:11;;;;;;;16.17;10.15;;;;;;;;;;5037360;28;20052;-80
2022/04/18 06:50:39;;;;;;;16.75;10.27;;;;;;;;;;5037293;28;20489;-81
2022/04/18 06:53:06;;;;;;;17.83;9.70;;;;;;;;;;5036532;28;20053;-83
2022/04/18 06:58:16;;;;;;;14.23;9.40;;;;;;;;;;5037703;28;20116;-81
2022/04/18 07:00:43;;;;;;;19.15;9.45;;;;;;;;;;5038691;28;20049;-81
2022/04/18 07:03:10;;;;;;;23.20;9.68;;;;;;;;;;5039332;28;20170;-82
2022/04/18 07:05:38;;;;;;;16.25;10.10;;;;;;;;;;5039021;28;20106;-82
2022/04/18 07:08:05;;;;;;;14.32;8.95;;;;;;;;;;5038914;28;20072;-83
2022/04/18 07:10:32;;;;;;;16.73;9.40;;;;;;;;;;5035711;28;20052;-81
2022/04/18 07:13:00;;;;;;;16.95;9.65;;;;;;;;;;5036745;28;20953;-82
2022/04/18 07:15:28;;;;;;;16.55;9.43;;;;;;;;;;5039339;28;20053;-82
2022/04/18 07:17:55;;;;;;;16.17;9.80;;;;;;;;;;5037537;28;20403;-81
2022/04/18 07:20:23;;;;;;;17.05;9.80;;;;;;;;;;5038142;28;20052;-82
2022/04/18 07:22:50;;;;;;;15.82;9.45;;;;;;;;;;5034109;28;20057;-82
2022/04/18 07:25:18;;;;;;;15.88;9.43;;;;;;;;;;5035447;28;20124;-81
2022/04/18 07:27:45;;;;;;;16.50;9.77;;;;;;;;;;5038802;28;20470;-81
2022/04/18 07:30:12;;;;;;;12.75;8.77;;;;;;;;;;5039105;28;20045;-81
2022/04/18 07:32:41;;;;;;;16.48;8.65;;;;;;;;;;5041222;28;20053;-81
2022/04/18 07:35:10;;;;;;;19.45;9.20;;;;;;;;;;5036898;28;20360;-81
2022/04/18 07:37:37;;;;;;;14.70;9.20;;;;;;;;;;5036795;28;20057;-81
2022/04/18 07:40:04;;;;;;;14.77;9.38;;;;;;;;;;5037189;28;20819;-82
2022/04/18 07:42:31;;;;;;;16.77;9.10;;;;;;;;;;5034615;28;20442;-82
2022/04/18 07:45:00;;;;;;;13.45;8.63;;;;;;;;;;5040689;28;20115;-81
2022/04/18 07:47:27;;;;;;;16.70;8.90;;;;;;;;;;5038444;28;20056;-81
2022/04/18 07:49:56;;;;;;;17.73;9.40;;;;;;;;;;5038813;28;20099;-81
2022/04/18 07:52:23;;;;;;;15.80;8.75;;;;;;;;;;5043592;28;20049;-82
2022/04/18 07:54:50;;;;;;;15.95;9.30;;;;;;;;;;5036633;28;20067;-81
2022/04/18 07:57:18;;;;;;;14.82;8.73;;;;;;;;;;5034650;28;20045;-82
2022/04/18 07:59:45;;;;;;;14.27;8.93;;;;;;;;;;5035153;28;20065;-82
2022/04/18 08:02:13;;;;;;;16.75;9.88;;;;;;;;;;5040335;28;20045;-82
2022/04/18 08:04:40;;;;;;;15.18;9.70;;;;;;;;;;5039987;28;20656;-82
2022/04/18 08:07:08;;;;;;;14.15;8.93;;;;;;;;;;5031469;28;20049;-82
2022/04/18 08:09:36;;;;;;;16.73;9.40;;;;;;;;;;5038075;28;20053;-81
2022/04/18 08:12:03;;;;;;;15.73;9.30;;;;;;;;;;5034860;28;20595;-82
2022/04/18 08:14:30;;;;;;;14.75;8.55;;;;;;;;;;5039956;28;20049;-82
2022/04/18 08:16:57;;;;;;;15.75;9.00;;;;;;;;;;5040336;28;20514;-81
2022/04/18 08:19:24;;;;;;;13.90;8.85;;;;;;;;;;5035022;28;20045;-82
2022/04/18 08:21:52;;;;;;;13.82;8.55;;;;;;;;;;5031935;28;20065;-82
2022/04/18 08:24:21;;;;;;;15.63;8.48;;;;;;;;;;5035530;28;20085;-82
2022/04/18 08:26:49;;;;;;;15.23;8.77;;;;;;;;;;5039913;28;20049;-81
2022/04/18 08:29:18;;;;;;;15.68;8.55;;;;;;;;;;5037061;28;20053;-82
2022/04/18 08:31:45;;;;;;;15.00;8.20;;;;;;;;;;5036886;28;20510;-81
2022/04/18 08:34:13;;;;;;;15.00;8.18;;;;;;;;;;5038353;28;20106;-82
2022/04/18 08:36:40;;;;;;;13.48;7.95;;;;;;;;;;5036665;28;20049;-82
2022/04/18 08:39:07;;;;;;;11.88;7.78;;;;;;;;;;5036118;28;20098;-82
2022/04/18 08:41:39;;;;;;;15.75;7.90;;;;;;;;;;5041103;28;20056;-81
2022/04/18 08:44:06;;;;;;;14.20;7.78;;;;;;;;;;5041443;28;20064;-81
2022/04/18 08:46:34;;;;;;;12.13;7.57;;;;;;;;;;5040951;28;20041;-81
2022/04/18 08:54:31;;;;;;;10.75;7.10;;;;;;;;;;5042191;28;20640;-82
2022/04/18 08:57:00;;;;;;;11.23;7.18;;;;;;;;;;5040731;28;20064;-82
2022/04/18 08:59:27;;;;;;;11.40;7.63;;;;;;;;;;5041517;28;20127;-81
2022/04/18 09:01:54;;;;;;;10.70;7.10;;;;;;;;;;5042540;28;20049;-82
2022/04/18 09:04:22;;;;;;;13.05;7.72;;;;;;;;;;5037653;28;20057;-82
2022/04/18 09:06:49;;;;;;;12.82;6.82;;;;;;;;;;5039505;28;20082;-81
2022/04/18 09:09:16;;;;;;;13.02;6.60;;;;;;;;;;5042323;28;20049;-82
2022/04/18 09:11:47;;;;;;;11.60;6.60;;;;;;;;;;5043537;28;20103;-82
2022/04/18 09:14:16;;;;;;;10.98;6.22;;;;;;;;;;5040223;28;20040;-82
2022/04/18 09:16:44;;;;;;;10.00;5.97;;;;;;;;;;5043441;28;20073;-82
2022/04/18 09:19:12;;;;;;;12.63;6.65;;;;;;;;;;5039405;28;20060;-82
2022/04/18 09:21:43;;;;;;;11.13;6.10;;;;;;;;;;5041073;28;20045;-82
2022/04/18 09:24:31;;;;;;;12.60;6.50;;;;;;;;;;5049382;28;20815;-83
2022/04/18 09:26:59;;;;;;;12.10;6.53;;;;;;;;;;5048588;28;20048;-82
2022/04/18 09:29:31;;;;;;;9.43;5.20;;;;;;;;;;5045700;28;20645;-82
2022/04/18 09:32:00;;;;;;;9.17;5.47;;;;;;;;;;5038818;28;20053;-81
2022/04/18 09:34:27;;;;;;;8.27;5.68;;;;;;;;;;5042973;28;20045;-83
2022/04/18 09:37:09;;;;;;;8.13;5.43;;;;;;;;;;5043091;28;20045;-82
2022/04/18 09:39:37;;;;;;;9.35;5.82;;;;;;;;;;5043507;28;20104;-82
2022/04/18 09:42:11;;;;;;;8.48;5.65;;;;;;;;;;5040888;28;20552;-82
2022/04/18 09:44:40;;;;;;;9.85;6.28;;;;;;;;;;5038526;28;20060;-82
2022/04/18 09:47:07;;;;;;;10.15;5.63;;;;;;;;;;5046503;28;20068;-82
2022/04/18 09:49:38;;;;;;;12.93;6.30;;;;;;;;;;5046405;28;20516;-82
2022/04/18 09:52:07;;;;;;;9.27;5.95;;;;;;;;;;5045828;28;20475;-82
2022/04/18 09:54:35;;;;;;;7.78;5.07;;;;;;;;;;5045375;28;20381;-82
2022/04/18 09:57:06;;;;;;;8.38;5.20;;;;;;;;;;5043537;28;20529;-82
2022/04/18 09:59:34;;;;;;;10.60;5.35;;;;;;;;;;5042578;28;20052;-82
2022/04/18 10:02:03;;;;;;;10.70;5.80;;;;;;;;;;5034619;28;20225;-82
2022/04/18 10:04:30;;;;;;;6.82;5.07;;;;;;;;;;5046525;28;20052;-82
2022/04/18 10:06:57;;;;;;;8.88;5.43;;;;;;;;;;5045019;28;20497;-82
2022/04/18 10:09:25;;;;;;;7.63;5.40;;;;;;;;;;5042555;28;20729;-82
2022/04/18 10:11:52;;;;;;;7.68;5.60;;;;;;;;;;5046998;28;20550;-83
2022/04/18 10:14:20;;;;;;;12.70;5.70;;;;;;;;;;5040096;28;20554;-82
2022/04/18 10:16:47;;;;;;;9.23;5.38;;;;;;;;;;5044103;28;20060;-83
2022/04/18 10:19:20;;;;;;;8.68;5.05;;;;;;;;;;5036469;28;20049;-82
2022/04/18 10:21:50;;;;;;;8.98;5.13;;;;;;;;;;5040757;28;20149;-82
2022/04/18 10:24:36;;;;;;;7.18;4.55;;;;;;;;;;5042429;28;20067;-83
2022/04/18 10:27:20;;;;;;;7.97;4.57;;;;;;;;;;5044221;28;20049;-83
2022/04/18 10:29:49;;;;;;;8.80;5.18;;;;;;;;;;5044498;28;20056;-82
2022/04/18 10:32:18;;;;;;;9.68;4.50;;;;;;;;;;5042501;28;20084;-82
2022/04/18 10:34:47;;;;;;;7.43;4.22;;;;;;;;;;5039433;28;20140;-83
2022/04/18 10:37:17;;;;;;;8.82;4.25;;;;;;;;;;5047036;28;20061;-83
2022/04/18 10:39:44;;;;;;;5.82;3.95;;;;;;;;;;5045075;28;20068;-83
2022/04/18 10:42:21;;;;;;;7.28;4.40;;;;;;;;;;5044009;28;20060;-82
2022/04/18 10:44:59;;;;;;;5.95;4.38;;;;;;;;;;5035251;28;20053;-83
2022/04/18 10:47:26;;;;;;;7.45;3.97;;;;;;;;;;5046870;28;20045;-83
2022/04/18 10:50:11;;;;;;;6.20;3.55;;;;;;;;;;5039486;28;20420;-83
2022/04/18 10:52:40;;;;;;;5.95;4.05;;;;;;;;;;5038970;28;20084;-83
2022/04/18 10:55:07;;;;;;;6.22;4.00;;;;;;;;;;5038847;28;20571;-83
2022/04/18 10:57:34;;;;;;;9.00;4.10;;;;;;;;;;5036991;28;20049;-83
2022/04/18 11:00:06;;;;;;;6.13;3.47;;;;;;;;;;5043943;28;20049;-83
2022/04/18 11:02:41;;;;;;;7.13;3.38;;;;;;;;;;5044919;28;20056;-84
2022/04/18 11:05:09;;;;;;;6.90;3.85;;;;;;;;;;5038055;28;20475;-82
2022/04/18 11:07:41;;;;;;;5.88;3.50;;;;;;;;;;5039034;28;20161;-83
2022/04/18 11:10:19;;;;;;;3.97;2.75;;;;;;;;;;5047369;28;20065;-83
2022/04/18 11:12:46;;;;;;;5.53;3.20;;;;;;;;;;5043403;28;20092;-83
2022/04/18 11:15:14;;;;;;;6.95;3.42;;;;;;;;;;5043387;28;20056;-83
2022/04/18 11:17:42;;;;;;;5.68;3.60;;;;;;;;;;5045131;28;20056;-83
2022/04/18 11:20:26;;;;;;;5.60;3.83;;;;;;;;;;5040443;28;20110;-83
2022/04/18 11:23:12;;;;;;;4.88;3.38;;;;;;;;;;5044949;28;20087;-83
2022/04/18 11:25:51;;;;;;;3.95;2.78;;;;;;;;;;5035827;28;20067;-83
2022/04/18 11:28:19;;;;;;;4.82;2.60;;;;;;;;;;5045314;28;20045;-83
2022/04/18 11:30:46;;;;;;;6.20;3.33;;;;;;;;;;5045573;28;20057;-83
2022/04/18 11:33:13;;;;;;;5.22;3.25;;;;;;;;;;5041747;28;20057;-83
2022/04/18 11:35:41;;;;;;;7.68;3.30;;;;;;;;;;5044850;28;20052;-83
2022/04/18 11:38:08;;;;;;;3.53;2.58;;;;;;;;;;5040722;28;20060;-83
2022/04/18 11:40:37;;;;;;;3.65;2.63;;;;;;;;;;5035459;28;20053;-84
2022/04/18 11:43:12;;;;;;;5.32;3.40;;;;;;;;;;5044360;28;20049;-83
2022/04/18 11:45:40;;;;;;;6.25;3.15;;;;;;;;;;5042578;28;20098;-84
2022/04/18 11:48:07;;;;;;;4.05;2.72;;;;;;;;;;5038673;28;20120;-83
2022/04/18 11:50:37;;;;;;;4.53;3.30;;;;;;;;;;5042636;28;20056;-83
2022/04/18 11:53:05;;;;;;;4.63;3.13;;;;;;;;;;5039841;28;20049;-84
2022/04/18 11:55:32;;;;;;;7.13;3.10;;;;;;;;;;5040597;28;20069;-82
2022/04/18 11:57:59;;;;;;;5.57;3.30;;;;;;;;;;5043033;28;20404;-83
2022/04/18 12:08:45;;;;;;;4.22;3.00;;;;;;;;;;5041804;28;20053;-83
2022/04/18 12:11:12;;;;;;;5.00;3.20;;;;;;;;;;5040937;28;20377;-83
2022/04/18 12:13:42;;;;;;;4.68;3.22;;;;;;;;;;5044054;28;20052;-82
2022/04/18 12:16:11;;;;;;;4.93;2.83;;;;;;;;;;5045915;28;20099;-83
2022/04/18 12:18:39;;;;;;;5.88;3.30;;;;;;;;;;5046211;28;20072;-83
2022/04/18 12:21:06;;;;;;;5.70;3.50;;;;;;;;;;5038279;28;20504;-84
2022/04/18 12:23:33;;;;;;;4.88;3.25;;;;;;;;;;5041415;28;20058;-83
2022/04/18 12:26:01;;;;;;;5.05;3.22;;;;;;;;;;5041376;28;20045;-83
2022/04/18 12:28:29;;;;;;;6.55;3.50;;;;;;;;;;5046608;28;20071;-83
2022/04/18 12:30:57;;;;;;;4.10;3.03;;;;;;;;;;5048290;28;20060;-83
2022/04/18 12:33:26;;;;;;;4.80;3.42;;;;;;;;;;5048005;28;20056;-84
2022/04/18 12:35:55;;;;;;;4.93;3.33;;;;;;;;;;5047612;28;20061;-83
2022/04/18 12:38:22;;;;;;;4.20;3.53;;;;;;;;;;5046585;28;20423;-83
2022/04/18 12:40:54;;;;;;;4.72;2.90;;;;;;;;;;5048324;28;20053;-83
2022/04/18 12:43:22;;;;;;;4.65;3.22;;;;;;;;;;5043371;28;20065;-83
2022/04/18 12:45:50;;;;;;;3.53;2.58;;;;;;;;;;5045957;28;20060;-83
2022/04/18 12:48:22;;;;;;;4.80;2.60;;;;;;;;;;5043832;28;20052;-83
2022/04/18 12:50:50;;;;;;;4.25;2.90;;;;;;;;;;5041903;28;20055;-84
2022/04/18 12:53:18;;;;;;;3.00;2.30;;;;;;;;;;5047253;28;20057;-83
2022/04/18 12:55:45;;;;;;;4.03;2.60;;;;;;;;;;5040680;28;20053;-84
2022/04/18 12:58:18;;;;;;;2.80;2.50;;;;;;;;;;5047226;28;20088;-82
2022/04/18 13:00:46;;;;;;;4.03;2.63;;;;;;;;;;5046453;28;20057;-82
2022/04/18 13:03:14;;;;;;;3.25;2.55;;;;;;;;;;5040274;28;20056;-81
2022/04/18 13:05:43;;;;;;;3.40;2.67;;;;;;;;;;5036653;28;20053;-81
2022/04/18 13:08:11;;;;;;;3.67;2.63;;;;;;;;;;5040902;28;20044;-81
2022/04/18 13:10:39;;;;;;;4.18;3.10;;;;;;;;;;5045143;28;20064;-82
2022/04/18 13:13:07;;;;;;;5.00;2.95;;;;;;;;;;5044549;28;20112;-82
2022/04/18 13:15:34;;;;;;;4.00;3.00;;;;;;;;;;5040921;28;20419;-81
2022/04/18 13:18:04;;;;;;;5.55;3.22;;;;;;;;;;5043944;28;20059;-82
2022/04/18 13:20:32;;;;;;;3.97;3.20;;;;;;;;;;5037492;28;20726;-82
2022/04/18 13:22:59;;;;;;;6.03;2.72;;;;;;;;;;5041618;28;20053;-81
2022/04/18 13:25:28;;;;;;;3.97;2.75;;;;;;;;;;5040613;28;20073;-81
2022/04/18 13:27:55;;;;;;;4.50;3.30;;;;;;;;;;5042896;28;20049;-81
2022/04/18 13:30:23;;;;;;;6.07;2.80;;;;;;;;;;5041164;28;20060;-82
2022/04/18 13:32:51;;;;;;;3.15;2.72;;;;;;;;;;5047116;28;20082;-82
2022/04/18 13:35:18;;;;;;;4.20;2.80;;;;;;;;;;5045621;28;20140;-81
2022/04/18 13:37:46;;;;;;;4.25;2.97;;;;;;;;;;5044970;28;20045;-81
2022/04/18 13:40:14;;;;;;;3.95;2.80;;;;;;;;;;5044505;28;20133;-81
2022/04/18 13:42:42;;;;;;;3.15;2.80;;;;;;;;;;5041901;28;20053;-81
2022/04/18 13:45:11;;;;;;;3.63;2.88;;;;;;;;;;5042009;28;20045;-81
2022/04/18 13:47:40;;;;;;;5.22;3.50;;;;;;;;;;5045616;28;20643;-81
2022/04/18 13:50:07;;;;;;;4.90;3.47;;;;;;;;;;5042812;28;20059;-82
2022/04/18 13:52:35;;;;;;;6.20;3.28;;;;;;;;;;5047918;28;20048;-82
2022/04/18 13:55:02;;;;;;;4.75;3.50;;;;;;;;;;5048074;28;20535;-79
2022/04/18 13:57:29;;;;;;;4.50;3.40;;;;;;;;;;5045763;28;20090;-78
2022/04/18 13:59:58;;;;;;;4.22;3.08;;;;;;;;;;5043187;28;20055;-81
2022/04/18 14:02:26;;;;;;;5.43;3.50;;;;;;;;;;5042426;28;20071;-81
2022/04/18 14:04:53;;;;;;;6.97;4.15;;;;;;;;;;5044205;28;20061;-81
2022/04/18 14:07:20;;;;;;;4.47;3.80;;;;;;;;;;5043182;28;20041;-81
2022/04/18 14:09:47;;;;;;;4.18;3.60;;;;;;;;;;5039150;28;20052;-81
2022/04/18 14:12:15;;;;;;;5.60;3.60;;;;;;;;;;5045118;28;20492;-81
2022/04/18 14:20:23;;;;;;;3.83;3.38;;;;;;;;;;5038312;28;20083;-82
2022/04/18 14:22:52;;;;;;;3.72;3.35;;;;;;;;;;5047505;28;20052;-82
2022/04/18 14:25:19;;;;;;;5.70;3.42;;;;;;;;;;5039411;28;20115;-81
2022/04/18 14:27:47;;;;;;;3.83;3.33;;;;;;;;;;5045019;28;20114;-81
2022/04/18 14:30:14;;;;;;;5.32;3.30;;;;;;;;;;5040655;28;20057;-82
2022/04/18 14:32:43;;;;;;;4.88;3.45;;;;;;;;;;5041569;28;20063;-82
2022/04/18 14:35:11;;;;;;;7.43;3.13;;;;;;;;;;5048163;28;20065;-81
2022/04/18 14:37:39;;;;;;;5.88;2.42;;;;;;;;;;5040869;28;20057;-82
2022/04/18 14:40:07;;;;;;;6.38;3.10;;;;;;;;;;5038901;28;20079;-81
2022/04/18 14:42:34;;;;;;;3.63;2.70;;;;;;;;;;5037816;28;20052;-81
2022/04/18 14:45:02;;;;;;;2.80;2.30;;;;;;;;;;5040128;28;20049;-81
2022/04/18 14:47:29;;;;;;;5.07;3.10;;;;;;;;;;5039779;28;20088;-82
2022/04/18 14:50:00;;;;;;;3.70;2.80;;;;;;;;;;5039073;28;20057;-82
2022/04/18 14:52:27;;;;;;;3.83;3.30;;;;;;;;;;5038041;28;20091;-81
2022/04/18 14:54:54;;;;;;;4.47;3.22;;;;;;;;;;5045676;28;20056;-81
2022/04/18 14:57:22;;;;;;;5.80;3.38;;;;;;;;;;5040462;28;20049;-81
2022/04/18 14:59:49;;;;;;;3.97;3.13;;;;;;;;;;5042030;28;20089;-81
2022/04/18 15:02:17;;;;;;;3.85;3.45;;;;;;;;;;5047023;28;20051;-82
2022/04/18 15:04:44;;;;;;;4.10;3.20;;;;;;;;;;5040835;28;20056;-81
2022/04/18 15:07:13;;;;;;;4.07;3.47;;;;;;;;;;5044612;28;20045;-81